This is the latest recevied weather packets stored in our database for station/object K5NOC-12. If no packets are shown the sender has not sent any weather packets the latest 10 day(s).
| Time | Temp. | Humidity | Pressure | Rain* | Wind** | Luminosity | Snow |
|---|---|---|---|---|---|---|---|
| 1787723295 | 20° C | 80% | 1025.6 hPa | 0 mm | - | - | - |
| 1787722394 | 20° C | 80% | 1025.8 hPa | 0 mm | - | - | - |
| 1787721494 | 20.56° C | 80% | 1025.6 hPa | 0 mm | - | - | - |
| 1787720594 | 21.67° C | 73% | 1025.2 hPa | 0 mm | - | - | - |
| 1787719694 | 21.67° C | 72% | 1024 hPa | 0 mm | - | - | - |
| 1787718794 | 21.11° C | 75% | 1023.2 hPa | 0 mm | - | - | - |
| 1787717894 | 20.56° C | 80% | 1022.5 hPa | 0.25 mm | - | - | - |
| 1787716994 | 20° C | 82% | 1023 hPa | 0.25 mm | - | - | - |
| 1787716094 | 20° C | 85% | 1022.1 hPa | 0.51 mm | - | - | - |
| 1787715193 | 20.56° C | 83% | 1022.2 hPa | 0.76 mm | - | - | - |
| 1787714293 | 20° C | 90% | 1022.9 hPa | 1.27 mm | - | - | - |
| 1787713393 | 20° C | 91% | 1024.3 hPa | 1.78 mm | - | - | - |
| 1787712493 | 19.44° C | 91% | 1025.2 hPa | 8.38 mm | - | - | - |
| 1787711593 | 19.44° C | 90% | 1026.5 hPa | 20.57 mm | - | - | - |
| 1787710693 | 20° C | 91% | 1025.5 hPa | 23.11 mm | - | - | - |
| 1787709793 | 19.44° C | 90% | 1025.3 hPa | 22.61 mm | - | - | - |
| 1787708893 | 18.89° C | 88% | 1025.6 hPa | 15.75 mm | - | - | - |
| 1787707992 | 22.22° C | 77% | 1025.3 hPa | 3.3 mm | - | - | - |
| 1787707092 | 27.22° C | 54% | 1022.1 hPa | 0 mm | - | - | - |
| 1787706192 | 30.56° C | 44% | 1018.3 hPa | 0 mm | - | - | - |
| 1787705292 | 31.11° C | 42% | 1017.9 hPa | 0 mm | - | - | - |
| 1787704392 | 31.67° C | 43% | 1018.2 hPa | 0 mm | - | - | - |
| 1787703492 | 31.67° C | 44% | 1018.7 hPa | 0 mm | - | - | - |
| 1787702592 | 32.22° C | 43% | 1018.7 hPa | 0 mm | - | - | - |
| 1787701692 | 34.44° C | 39% | 1018.7 hPa | 0 mm | - | - | - |
* Rain latest hour (hover to see other rain measurements)
** Current wind speed in m/s (hover to see current wind gust speed)